This is the latest recevied weather packets stored in our database for station/object HA5KDQ-10. If no packets are shown the sender has not sent any weather packets the latest 10 day(s).
| Time | Temp. | Humidity | Pressure | Rain* | Wind** | Luminosity | Snow |
|---|---|---|---|---|---|---|---|
| 1778191747 | 15° C | 62% | 959.6 hPa | - | - | - | - |
| 1778188146 | 15.56° C | 60% | 959.5 hPa | - | - | - | - |
| 1778184546 | 15.56° C | 59% | 959.4 hPa | - | - | - | - |
| 1778180945 | 15.56° C | 58% | 959.1 hPa | - | - | - | - |
| 1778177362 | 15.56° C | 58% | 958.7 hPa | - | - | - | - |
| 1778173761 | 16.67° C | 56% | 958.1 hPa | - | - | - | - |
| 1778170160 | 16.67° C | 55% | 958.1 hPa | - | - | - | - |
| 1778166559 | 16.67° C | 54% | 958.1 hPa | - | - | - | - |
| 1778162958 | 18.33° C | 48% | 958.2 hPa | - | - | - | - |
| 1778159357 | 22.78° C | 40% | 958.3 hPa | - | - | - | - |
| 1778155757 | 23.89° C | 37% | 958.3 hPa | - | - | - | - |
| 1778152156 | 25.56° C | 36% | 958.3 hPa | - | - | - | - |
| 1778148555 | 28.33° C | 35% | 958.4 hPa | - | - | - | - |
| 1778144954 | 26.67° C | 39% | 958 hPa | - | - | - | - |
| 1778141353 | 20.56° C | 50% | 957.5 hPa | - | - | - | - |
| 1778137752 | 22.22° C | 49% | 957.1 hPa | - | - | - | - |
| 1778134151 | 17.78° C | 57% | 956.6 hPa | - | - | - | - |
| 1778130550 | 16.11° C | 61% | 956.1 hPa | - | - | - | - |
| 1778126950 | 15.56° C | 62% | 955.6 hPa | - | - | - | - |
| 1778123349 | 15.56° C | 63% | 954.9 hPa | - | - | - | - |
| 1778119748 | 16.11° C | 62% | 955.1 hPa | - | - | - | - |
| 1778116147 | 16.67° C | 61% | 955.2 hPa | - | - | - | - |
| 1778112546 | 17.22° C | 62% | 955.4 hPa | - | - | - | - |
| 1778108945 | 16.67° C | 61% | 955.7 hPa | - | - | - | - |
| 1778105345 | 17.78° C | 54% | 955.2 hPa | - | - | - | - |
* Rain since midnight (hover to see other rain measurements)
** Current wind speed in m/s (hover to see current wind gust speed)